Time;durP1;ratioP1;P1;durP2;ratioP2;P2;SDS_P1;SDS_P2;PMS_P1;PMS_P2;Temp;Humidity;BMP_temperature;BMP_pressure;BME280_temperature;BME280_humidity;BME280_pressure;Samples;Min_cycle;Max_cycle;Signal;HPM_P1;HPM_P2
2022/01/19 00:01:15;;;;;;;8.67;3.73;;;1.20;95.30;;;;;;6215716;23;20506;-80
2022/01/19 00:03:42;;;;;;;9.80;3.60;;;1.30;93.20;;;;;;6215199;23;20200;-79
2022/01/19 00:06:09;;;;;;;10.57;3.83;;;1.00;92.40;;;;;;6215354;23;20208;-79
2022/01/19 00:08:36;;;;;;;9.17;3.13;;;1.20;94.30;;;;;;6215067;23;20204;-80
2022/01/19 00:11:03;;;;;;;9.00;3.67;;;0.90;92.90;;;;;;6215905;23;20209;-81
2022/01/19 00:13:31;;;;;;;9.03;3.73;;;0.70;94.20;;;;;;6215528;23;20207;-82
2022/01/19 00:15:58;;;;;;;9.23;3.57;;;1.00;94.20;;;;;;6214951;23;20201;-81
2022/01/19 00:18:26;;;;;;;8.13;3.53;;;0.90;93.60;;;;;;6214567;23;20232;-80
2022/01/19 00:20:56;;;;;;;8.80;3.40;;;0.70;94.10;;;;;;6215886;23;20261;-80
2022/01/19 00:23:23;;;;;;;11.20;4.00;;;0.40;93.70;;;;;;6215165;23;20208;-81
2022/01/19 00:25:52;;;;;;;8.23;3.67;;;0.30;94.10;;;;;;6216388;23;20174;-80
2022/01/19 00:28:19;;;;;;;14.77;4.10;;;0.20;94.00;;;;;;6217484;23;20224;-80
2022/01/19 00:30:47;;;;;;;7.63;3.53;;;0.30;96.00;;;;;;6221604;23;20180;-80
2022/01/19 00:33:15;;;;;;;6.73;3.63;;;0.70;94.80;;;;;;6215330;23;20277;-81
2022/01/19 00:35:43;;;;;;;10.07;3.40;;;0.80;94.20;;;;;;6215477;23;20252;-82
2022/01/19 00:38:14;;;;;;;8.80;3.23;;;0.60;93.60;;;;;;6215500;23;20208;-81
2022/01/19 00:40:41;;;;;;;5.93;3.03;;;0.30;94.10;;;;;;6215455;23;20510;-79
2022/01/19 00:43:09;;;;;;;8.47;4.00;;;0.30;94.10;;;;;;6215532;23;20291;-82
2022/01/19 00:45:36;;;;;;;9.27;3.73;;;0.50;95.20;;;;;;6214804;23;20177;-79
2022/01/19 00:48:03;;;;;;;7.77;3.73;;;0.70;94.20;;;;;;6214972;22;20715;-80
2022/01/19 00:50:31;;;;;;;8.37;3.77;;;0.50;94.10;;;;;;6215759;23;20177;-81
2022/01/19 00:53:02;;;;;;;6.83;3.40;;;0.30;94.10;;;;;;6217603;23;20174;-80
2022/01/19 00:55:29;;;;;;;5.93;3.40;;;0.10;94.10;;;;;;6214923;23;20247;-79
2022/01/19 00:57:56;;;;;;;9.47;3.90;;;0.10;95.10;;;;;;6213962;23;20181;-79
2022/01/19 01:00:26;;;;;;;9.47;3.60;;;0.10;94.80;;;;;;6216868;23;20188;-81
2022/01/19 01:02:53;;;;;;;6.20;3.17;;;0.00;94.70;;;;;;6215826;23;20248;-82
2022/01/19 01:05:21;;;;;;;8.87;4.00;;;-0.10;94.80;;;;;;6218247;23;20227;-81
2022/01/19 01:07:50;;;;;;;9.33;3.83;;;-0.10;95.00;;;;;;6213812;23;20247;-79
2022/01/19 01:10:20;;;;;;;8.20;3.70;;;-0.20;95.20;;;;;;6214940;23;20259;-81
2022/01/19 01:12:50;;;;;;;6.10;3.50;;;-0.20;95.60;;;;;;6214852;23;20219;-81
2022/01/19 01:15:28;;;;;;;13.03;3.47;;;-0.10;95.30;;;;;;6214755;23;20233;-79
2022/01/19 01:20:40;;;;;;;7.87;3.33;;;-0.10;94.80;;;;;;6215224;23;20155;-81
2022/01/19 01:23:09;;;;;;;9.30;3.17;;;0.00;94.90;;;;;;6214375;23;20205;-79
2022/01/19 01:25:38;;;;;;;7.90;3.27;;;-0.10;95.20;;;;;;6214457;23;20178;-81
2022/01/19 01:28:06;;;;;;;10.17;3.43;;;0.00;95.00;;;;;;6214310;23;20582;-80
2022/01/19 01:30:33;;;;;;;9.33;3.33;;;-0.10;94.70;;;;;;6213996;23;20170;-79
2022/01/19 01:33:00;;;;;;;7.87;3.33;;;-0.20;94.70;;;;;;6213447;23;20183;-79
2022/01/19 01:35:27;;;;;;;9.73;3.40;;;-0.20;94.90;;;;;;6214435;23;20210;-80
2022/01/19 01:37:54;;;;;;;6.60;3.37;;;-0.20;95.00;;;;;;6213223;23;20178;-80
2022/01/19 01:40:24;;;;;;;9.03;3.53;;;-0.20;94.90;;;;;;6215204;23;20182;-81
2022/01/19 01:42:53;;;;;;;6.40;3.40;;;-0.20;94.70;;;;;;6215181;23;20162;-79
2022/01/19 01:45:25;;;;;;;8.13;3.60;;;-0.30;94.90;;;;;;6214193;23;20173;-81
2022/01/19 01:48:01;;;;;;;10.47;3.97;;;-0.40;95.20;;;;;;6214309;23;20185;-80
2022/01/19 01:53:28;;;;;;;7.90;3.50;;;-0.40;95.50;;;;;;6214120;23;20700;-84
2022/01/19 01:56:00;;;;;;;7.73;3.03;;;-0.40;95.50;;;;;;6213582;23;20213;-83
2022/01/19 01:58:31;;;;;;;7.50;3.17;;;-0.40;95.50;;;;;;6213752;23;20271;-85
2022/01/19 02:00:58;;;;;;;10.80;3.40;;;-0.50;95.60;;;;;;6215306;23;20278;-81
2022/01/19 02:03:25;;;;;;;5.67;3.30;;;-0.50;95.60;;;;;;6213677;23;21029;-82
2022/01/19 02:06:09;;;;;;;9.83;3.63;;;-0.40;95.70;;;;;;6214185;23;20256;-81
2022/01/19 02:08:43;;;;;;;8.57;3.87;;;-0.40;95.60;;;;;;6213176;23;20664;-84
2022/01/19 02:22:50;;;;;;;7.27;3.63;;;-0.60;95.90;;;;;;6217473;23;20167;-81
2022/01/19 02:25:25;;;;;;;8.53;3.30;;;-0.70;96.00;;;;;;6217806;23;20265;-81
2022/01/19 02:41:45;;;;;;;8.57;3.63;;;-0.70;97.60;;;;;;6216786;23;20159;-83
2022/01/19 02:44:26;;;;;;;7.07;3.23;;;-0.50;96.90;;;;;;6216476;23;20208;-81
2022/01/19 02:49:09;;;;;;;5.93;3.10;;;-0.30;96.60;;;;;;6217273;23;20162;-81
2022/01/19 02:49:40;;;;;;;7.27;3.47;;;0.10;96.60;;;;;;6215414;23;20234;-81
2022/01/19 02:52:09;;;;;;;5.03;3.40;;;0.20;95.00;;;;;;6216333;23;20261;-82
2022/01/19 02:54:37;;;;;;;7.20;3.60;;;0.10;94.70;;;;;;6215685;23;20669;-81
2022/01/19 02:57:07;;;;;;;6.63;3.57;;;-0.10;94.50;;;;;;6216890;23;20615;-86
2022/01/19 02:59:45;;;;;;;9.63;3.40;;;-0.30;94.60;;;;;;6216801;23;20519;-84
2022/01/19 03:10:38;;;;;;;8.23;3.60;;;-0.70;96.00;;;;;;6206445;23;20190;-84
2022/01/19 03:13:05;;;;;;;7.93;3.40;;;-0.90;96.00;;;;;;6216418;23;20703;-82
2022/01/19 03:15:32;;;;;;;8.93;3.60;;;-0.90;96.40;;;;;;6216883;23;20202;-82
2022/01/19 03:18:00;;;;;;;11.23;3.70;;;-0.80;97.10;;;;;;6215456;23;20275;-81
2022/01/19 03:20:29;;;;;;;6.20;3.43;;;-0.70;96.60;;;;;;6216878;23;20170;-82
2022/01/19 03:23:02;;;;;;;7.57;3.63;;;-0.80;96.50;;;;;;6217075;23;20186;-81
2022/01/19 03:25:30;;;;;;;8.80;3.60;;;-0.90;96.40;;;;;;6217644;23;20195;-83
2022/01/19 03:27:57;;;;;;;8.30;4.07;;;-0.90;97.00;;;;;;6216809;23;20484;-81
2022/01/19 03:30:24;;;;;;;8.63;3.60;;;-0.70;97.00;;;;;;6216379;23;20289;-82
2022/01/19 03:32:51;;;;;;;6.87;3.63;;;-0.60;96.60;;;;;;6219364;23;20200;-81
2022/01/19 03:35:18;;;;;;;8.10;3.80;;;-0.50;96.50;;;;;;6219077;23;20723;-81
2022/01/19 03:37:44;;;;;;;10.63;3.90;;;-0.30;96.70;;;;;;6220285;23;20260;-82
2022/01/19 03:40:13;;;;;;;11.17;4.30;;;-0.20;95.80;;;;;;6220817;23;20170;-81
2022/01/19 03:42:40;;;;;;;7.73;3.63;;;-0.40;95.30;;;;;;6221495;23;20258;-81
2022/01/19 03:45:10;;;;;;;10.70;4.17;;;-0.60;95.30;;;;;;6220771;23;20274;-81
2022/01/19 03:47:42;;;;;;;8.13;4.30;;;-0.70;95.80;;;;;;6221968;23;20179;-82
2022/01/19 03:50:10;;;;;;;5.80;3.53;;;-0.90;96.10;;;;;;6221855;23;20208;-84
2022/01/19 03:52:37;;;;;;;10.30;3.90;;;-0.70;97.00;;;;;;6218192;23;20256;-81
2022/01/19 03:55:04;;;;;;;9.70;3.90;;;-0.60;96.90;;;;;;6217367;23;20701;-83
2022/01/19 03:57:33;;;;;;;9.70;4.07;;;-0.20;97.00;;;;;;6218336;23;20188;-84
2022/01/19 04:00:00;;;;;;;6.07;3.67;;;0.10;96.40;;;;;;6215993;23;20202;-82
2022/01/19 04:02:27;;;;;;;5.73;3.33;;;0.10;94.60;;;;;;6218807;23;20189;-81
2022/01/19 04:05:04;;;;;;;9.07;3.70;;;-0.20;94.40;;;;;;6218073;23;20715;-83
2022/01/19 04:07:31;;;;;;;6.57;3.70;;;-0.40;94.90;;;;;;6215601;23;20166;-79
2022/01/19 04:09:58;;;;;;;8.73;3.93;;;-0.30;95.50;;;;;;6214609;23;20667;-80
2022/01/19 04:12:42;;;;;;;10.50;3.67;;;-0.10;96.00;;;;;;6215630;23;20173;-79
2022/01/19 04:15:11;;;;;;;8.37;3.80;;;0.00;95.90;;;;;;6214526;23;20179;-82
2022/01/19 04:17:43;;;;;;;9.57;4.23;;;-0.10;94.80;;;;;;6215183;23;20194;-79
2022/01/19 04:20:11;;;;;;;9.00;4.10;;;-0.20;95.50;;;;;;6214796;23;20246;-79
2022/01/19 04:22:38;;;;;;;7.97;4.30;;;-0.20;95.80;;;;;;6215361;23;20177;-80
2022/01/19 04:25:07;;;;;;;10.17;4.90;;;-0.10;96.20;;;;;;6214624;23;20202;-80
2022/01/19 04:27:34;;;;;;;10.43;6.03;;;0.10;96.10;;;;;;6215405;23;20506;-79
2022/01/19 04:30:08;;;;;;;10.37;6.83;;;0.20;96.50;;;;;;6213976;23;20220;-79
2022/01/19 04:32:43;;;;;;;12.73;7.47;;;0.50;96.50;;;;;;6216026;23;20623;-80
2022/01/19 04:35:13;;;;;;;14.90;8.40;;;0.60;96.30;;;;;;6214008;23;20177;-79
2022/01/19 04:46:11;;;;;;;14.60;8.40;;;0.20;96.40;;;;;;6214538;23;20164;-80
2022/01/19 04:54:39;;;;;;;19.97;8.27;;;0.50;96.90;;;;;;6213529;22;20260;-79
2022/01/19 05:05:47;;;;;;;13.70;8.70;;;0.40;97.00;;;;;;6177165;23;20201;-82
2022/01/19 05:08:21;;;;;;;18.57;9.37;;;0.30;97.30;;;;;;6213770;23;20204;-80
2022/01/19 05:13:36;;;;;;;16.00;8.93;;;0.50;97.00;;;;;;6213734;23;20710;-79
2022/01/19 05:16:03;;;;;;;19.13;9.20;;;0.50;97.10;;;;;;6214529;23;20243;-80
2022/01/19 05:18:30;;;;;;;17.07;8.60;;;0.80;98.00;;;;;;6214122;23;20201;-80
2022/01/19 05:20:58;;;;;;;14.37;8.53;;;1.10;97.80;;;;;;6214265;23;20203;-81
2022/01/19 05:23:25;;;;;;;17.03;9.23;;;1.20;97.10;;;;;;6214291;23;20206;-80
2022/01/19 05:25:52;;;;;;;16.20;8.67;;;1.40;96.50;;;;;;6214605;23;20510;-79
2022/01/19 05:28:19;;;;;;;16.37;8.33;;;1.40;96.20;;;;;;6213769;23;20708;-81
2022/01/19 05:30:46;;;;;;;13.43;8.27;;;1.50;96.00;;;;;;6216195;23;20173;-80
2022/01/19 05:33:13;;;;;;;16.30;8.57;;;1.60;95.00;;;;;;6216199;23;20209;-83
2022/01/19 05:35:40;;;;;;;13.47;7.80;;;1.70;94.40;;;;;;6219219;23;20284;-80
2022/01/19 05:38:10;;;;;;;12.30;8.13;;;1.50;93.70;;;;;;6215155;22;20197;-83
2022/01/19 05:40:37;;;;;;;14.30;8.00;;;1.60;95.20;;;;;;6219812;23;20184;-80
2022/01/19 05:43:04;;;;;;;14.80;8.53;;;1.70;94.40;;;;;;6219085;23;20249;-81
2022/01/19 05:45:31;;;;;;;14.03;7.57;;;1.70;94.40;;;;;;6217947;23;20180;-81
2022/01/19 05:47:58;;;;;;;18.73;8.47;;;1.60;94.40;;;;;;6216757;23;20262;-83
2022/01/19 05:50:25;;;;;;;16.17;8.40;;;1.50;94.30;;;;;;6216284;23;20254;-79
2022/01/19 05:52:52;;;;;;;15.50;9.23;;;1.40;94.90;;;;;;6213842;23;20626;-81
2022/01/19 05:55:21;;;;;;;12.87;8.70;;;1.40;95.10;;;;;;6215444;23;20169;-83
2022/01/19 05:57:48;;;;;;;13.73;8.43;;;1.50;95.50;;;;;;6216192;23;20190;-81
2022/01/19 06:00:15;;;;;;;14.87;8.87;;;1.50;94.40;;;;;;6214555;23;20223;-80
2022/01/19 06:02:44;;;;;;;16.50;8.70;;;1.40;94.90;;;;;;6216534;23;20257;-84
2022/01/19 06:05:15;;;;;;;16.37;9.93;;;1.40;95.40;;;;;;6214570;23;20197;-86
2022/01/19 06:07:46;;;;;;;13.23;9.30;;;1.40;95.40;;;;;;6214765;23;20241;-85
2022/01/19 06:10:42;;;;;;;15.10;8.87;;;1.50;95.80;;;;;;6214485;23;20555;-85
2022/01/19 06:13:03;;;;;;;14.23;9.03;;;1.60;95.30;;;;;;6213193;23;20174;-84
2022/01/19 06:15:39;;;;;;;14.40;9.13;;;1.40;95.10;;;;;;6214730;23;20195;-80
2022/01/19 06:18:06;;;;;;;15.77;9.10;;;1.40;95.70;;;;;;6218039;23;20205;-87
2022/01/19 06:20:36;;;;;;;15.70;9.23;;;1.30;94.80;;;;;;6219027;23;20253;-90
2022/01/19 06:23:04;;;;;;;16.60;9.60;;;1.10;95.40;;;;;;6220046;23;20479;-85
2022/01/19 06:25:31;;;;;;;15.33;8.97;;;0.90;96.00;;;;;;6219449;23;20260;-83
2022/01/19 06:27:58;;;;;;;17.60;9.90;;;1.00;97.60;;;;;;6216956;23;20189;-84
2022/01/19 06:30:27;;;;;;;18.03;9.43;;;1.00;96.80;;;;;;6215777;23;20178;-85
2022/01/19 06:32:55;;;;;;;17.17;9.77;;;0.90;96.80;;;;;;6213843;23;20638;-90
2022/01/19 06:35:22;;;;;;;13.60;9.87;;;0.90;97.20;;;;;;6214349;23;20199;-88
2022/01/19 06:37:49;;;;;;;17.60;10.53;;;0.90;96.80;;;;;;6214239;23;20194;-83
2022/01/19 06:40:20;;;;;;;16.50;9.90;;;1.00;97.80;;;;;;6210405;23;20574;-83
2022/01/19 06:42:48;;;;;;;18.73;10.30;;;1.20;97.60;;;;;;6214535;23;20525;-83
2022/01/19 06:45:16;;;;;;;14.70;9.70;;;1.10;97.30;;;;;;6216048;23;20173;-83
2022/01/19 06:47:45;;;;;;;19.27;10.70;;;1.20;97.50;;;;;;6216246;23;20483;-82
2022/01/19 06:50:15;;;;;;;18.20;10.43;;;1.20;97.50;;;;;;6212475;23;20194;-83
2022/01/19 06:52:41;;;;;;;16.87;10.30;;;1.20;97.30;;;;;;6215853;23;20166;-83
2022/01/19 06:55:09;;;;;;;15.43;10.20;;;1.30;96.70;;;;;;6215375;23;20197;-83
2022/01/19 06:57:35;;;;;;;16.23;10.87;;;1.40;97.10;;;;;;6215144;23;20204;-84
2022/01/19 07:00:04;;;;;;;19.33;10.87;;;1.30;96.70;;;;;;6214531;23;20726;-84
2022/01/19 07:02:31;;;;;;;18.57;11.13;;;1.20;96.60;;;;;;6214793;23;20622;-85
2022/01/19 07:05:00;;;;;;;22.80;11.03;;;1.00;96.60;;;;;;6214446;23;20211;-83
2022/01/19 07:07:27;;;;;;;19.53;11.30;;;1.00;97.00;;;;;;6217161;23;20251;-82
2022/01/19 07:09:54;;;;;;;16.23;10.97;;;1.20;97.70;;;;;;6216426;23;20198;-83
2022/01/19 07:12:21;;;;;;;17.37;11.20;;;1.20;96.90;;;;;;6216861;23;20204;-82
2022/01/19 07:14:48;;;;;;;17.00;10.57;;;1.20;96.90;;;;;;6216260;23;20229;-82
2022/01/19 07:17:16;;;;;;;16.80;10.30;;;1.30;96.60;;;;;;6216592;23;20201;-84
2022/01/19 07:19:43;;;;;;;14.47;10.23;;;1.30;96.90;;;;;;6216456;23;20292;-84
2022/01/19 07:22:28;;;;;;;17.80;11.43;;;1.40;96.50;;;;;;6216330;23;20257;-84
2022/01/19 07:24:56;;;;;;;16.80;11.00;;;1.50;96.50;;;;;;6216610;23;20208;-84
2022/01/19 07:27:23;;;;;;;17.57;11.77;;;1.60;96.00;;;;;;6217857;23;20201;-81
2022/01/19 07:29:50;;;;;;;16.00;11.50;;;1.60;96.30;;;;;;6217080;23;20264;-84
2022/01/19 07:32:19;;;;;;;20.70;12.70;;;1.50;95.60;;;;;;6218286;23;20174;-82
2022/01/19 07:34:46;;;;;;;18.77;12.73;;;1.40;95.90;;;;;;6216539;23;20296;-83
2022/01/19 07:37:13;;;;;;;19.50;11.80;;;1.40;96.70;;;;;;6216683;23;20709;-82
2022/01/19 07:39:42;;;;;;;19.93;12.43;;;1.40;95.90;;;;;;6216714;23;20668;-83
2022/01/19 07:42:09;;;;;;;16.70;11.43;;;1.40;96.30;;;;;;6217390;23;20252;-83
2022/01/19 07:44:38;;;;;;;17.83;11.50;;;1.70;97.00;;;;;;6216601;23;20202;-82
2022/01/19 07:47:05;;;;;;;19.33;12.30;;;2.00;95.90;;;;;;6216831;23;20174;-83
2022/01/19 07:49:32;;;;;;;17.73;11.87;;;2.00;95.10;;;;;;6216020;23;20198;-82
2022/01/19 07:51:59;;;;;;;18.60;12.07;;;2.00;95.50;;;;;;6216925;23;20184;-80
2022/01/19 07:54:26;;;;;;;18.43;11.37;;;2.20;95.10;;;;;;6215830;23;20669;-82
2022/01/19 07:56:54;;;;;;;16.87;11.97;;;2.20;94.90;;;;;;6217250;23;20193;-83
2022/01/19 07:59:22;;;;;;;18.70;12.23;;;2.40;94.80;;;;;;6215260;23;20201;-81
2022/01/19 08:01:48;;;;;;;20.97;12.47;;;2.30;94.50;;;;;;6216919;23;20264;-81
2022/01/19 08:04:15;;;;;;;19.00;11.97;;;2.10;93.70;;;;;;6220191;23;20584;-82
2022/01/19 08:06:42;;;;;;;17.80;12.57;;;1.80;94.40;;;;;;6221074;23;20259;-84
2022/01/19 08:09:09;;;;;;;15.57;11.43;;;1.80;94.40;;;;;;6219294;23;20204;-81
2022/01/19 08:11:36;;;;;;;16.73;11.67;;;2.10;95.20;;;;;;6216719;23;20170;-82
2022/01/19 08:14:05;;;;;;;18.67;11.93;;;2.20;94.50;;;;;;6214620;23;20201;-82
2022/01/19 08:16:32;;;;;;;17.83;11.87;;;2.40;94.70;;;;;;6215810;23;20981;-83
2022/01/19 08:18:58;;;;;;;19.33;12.10;;;2.60;93.40;;;;;;6215046;23;20280;-82
2022/01/19 08:21:25;;;;;;;18.03;11.70;;;2.60;93.20;;;;;;6216141;23;20791;-83
2022/01/19 08:23:53;;;;;;;17.03;11.03;;;2.70;93.40;;;;;;6215264;23;20268;-83
2022/01/19 08:26:20;;;;;;;17.33;11.03;;;2.80;93.20;;;;;;6222157;23;20696;-81
2022/01/19 08:28:47;;;;;;;15.77;10.80;;;2.70;93.20;;;;;;6215786;23;20210;-82
2022/01/19 08:31:16;;;;;;;15.47;11.13;;;2.70;92.80;;;;;;6215888;23;20174;-84
2022/01/19 08:33:43;;;;;;;16.60;11.53;;;2.70;92.70;;;;;;6215437;23;20200;-82
2022/01/19 08:36:10;;;;;;;17.70;11.83;;;2.40;92.40;;;;;;6216059;23;20174;-82
2022/01/19 08:38:39;;;;;;;18.17;11.97;;;2.30;93.00;;;;;;6214771;23;20212;-82
2022/01/19 08:41:05;;;;;;;19.17;12.17;;;2.40;93.90;;;;;;6216124;23;20171;-82
2022/01/19 08:43:32;;;;;;;16.73;12.20;;;2.60;93.60;;;;;;6215063;23;20197;-85
2022/01/19 08:45:59;;;;;;;17.40;11.33;;;2.70;93.00;;;;;;6220509;23;20225;-81
2022/01/19 08:48:28;;;;;;;16.57;11.80;;;2.90;93.50;;;;;;6220792;23;20227;-81
2022/01/19 08:50:55;;;;;;;18.27;11.13;;;3.00;93.00;;;;;;6221261;23;20184;-81
2022/01/19 08:53:22;;;;;;;15.47;11.20;;;2.80;92.40;;;;;;6221374;23;20213;-83
2022/01/19 08:55:50;;;;;;;17.37;10.93;;;2.70;92.40;;;;;;6222543;23;20186;-84
2022/01/19 08:58:17;;;;;;;17.23;11.30;;;2.90;91.80;;;;;;6221992;23;20217;-82
2022/01/19 09:00:46;;;;;;;16.63;11.03;;;2.70;92.10;;;;;;6221697;23;20241;-83
2022/01/19 09:03:13;;;;;;;14.33;10.73;;;2.90;92.90;;;;;;6219699;23;20204;-85
2022/01/19 09:05:41;;;;;;;17.93;10.70;;;3.10;92.00;;;;;;6220383;23;20174;-83
2022/01/19 09:08:09;;;;;;;15.13;11.13;;;3.20;91.40;;;;;;6221532;23;20198;-81
2022/01/19 09:10:37;;;;;;;14.77;10.57;;;3.40;91.70;;;;;;6222246;23;20256;-83
2022/01/19 09:13:04;;;;;;;18.37;11.83;;;3.50;90.80;;;;;;6222421;23;20289;-83
2022/01/19 09:15:31;;;;;;;16.70;11.37;;;3.70;91.50;;;;;;6222224;23;20174;-88
2022/01/19 09:17:58;;;;;;;14.07;10.80;;;3.80;90.20;;;;;;6220901;23;20234;-85
2022/01/19 09:20:26;;;;;;;16.50;11.13;;;3.90;88.40;;;;;;6217324;23;20244;-84
2022/01/19 09:22:54;;;;;;;13.70;10.60;;;4.10;89.70;;;;;;6216305;23;20180;-85
2022/01/19 09:25:21;;;;;;;15.77;10.40;;;4.10;86.80;;;;;;6216548;23;20206;-84
2022/01/19 09:27:48;;;;;;;15.13;10.67;;;4.20;87.20;;;;;;6215828;23;20201;-82
2022/01/19 09:30:17;;;;;;;14.67;10.63;;;4.00;84.60;;;;;;6217904;23;20622;-84
2022/01/19 09:32:53;;;;;;;16.90;10.23;;;3.70;88.20;;;;;;6217109;23;20643;-83
2022/01/19 09:35:24;;;;;;;15.70;10.37;;;3.70;88.70;;;;;;6216335;23;20185;-83
2022/01/19 09:37:51;;;;;;;13.73;10.33;;;3.90;88.30;;;;;;6218298;23;20186;-84
2022/01/19 09:40:20;;;;;;;13.37;10.40;;;3.90;88.60;;;;;;6216592;23;20570;-84
2022/01/19 09:42:47;;;;;;;13.17;10.40;;;4.10;88.40;;;;;;6217321;23;20260;-83
2022/01/19 09:45:14;;;;;;;14.43;9.97;;;4.00;86.20;;;;;;6216007;23;20261;-84
2022/01/19 09:47:41;;;;;;;14.03;9.60;;;4.00;85.80;;;;;;6217582;23;20261;-86
2022/01/19 09:50:09;;;;;;;13.93;9.47;;;5.20;83.90;;;;;;6217826;23;20276;-86
2022/01/19 09:52:39;;;;;;;11.60;9.63;;;6.50;71.30;;;;;;6220148;23;20191;-88
2022/01/19 09:55:08;;;;;;;12.07;9.10;;;7.20;63.90;;;;;;6221292;23;20741;-86
2022/01/19 09:57:36;;;;;;;11.95;8.85;;;8.30;54.00;;;;;;6220514;23;20660;-86
2022/01/19 10:00:04;;;;;;;11.75;9.52;;;9.10;47.60;;;;;;6222304;23;20273;-86
2022/01/19 10:02:31;;;;;;;10.73;9.27;;;9.50;41.50;;;;;;6222313;23;20180;-86
2022/01/19 10:05:06;;;;;;;10.60;9.38;;;9.70;39.40;;;;;;6218070;23;20665;-87
2022/01/19 10:07:34;;;;;;;12.90;9.57;;;10.20;37.40;;;;;;6217683;23;20227;-87
2022/01/19 10:10:05;;;;;;;10.30;9.15;;;9.30;38.90;;;;;;6217127;23;20198;-89
2022/01/19 10:18:12;;;;;;;10.20;9.15;;;10.40;34.90;;;;;;6217467;23;20561;-86
2022/01/19 10:20:39;;;;;;;9.95;8.85;;;9.90;37.70;;;;;;6218184;23;20174;-86
2022/01/19 10:23:13;;;;;;;12.32;10.27;;;10.00;35.00;;;;;;6217524;23;20588;-89
2022/01/19 10:25:51;;;;;;;10.50;9.50;;;10.00;35.50;;;;;;6218153;23;20172;-86
2022/01/19 10:28:18;;;;;;;10.13;9.10;;;10.80;33.50;;;;;;6217171;22;20273;-86
2022/01/19 10:30:46;;;;;;;13.77;9.48;;;11.20;33.30;;;;;;6217264;23;20180;-86
2022/01/19 10:33:18;;;;;;;10.15;9.15;;;10.90;33.30;;;;;;6217078;23;20268;-85
2022/01/19 10:35:47;;;;;;;9.55;8.63;;;11.40;32.80;;;;;;6219078;23;20529;-86
2022/01/19 10:38:18;;;;;;;10.13;8.85;;;11.50;30.20;;;;;;6217636;22;20201;-87
2022/01/19 10:41:05;;;;;;;11.38;10.18;;;11.40;31.90;;;;;;6217321;23;20170;-88
2022/01/19 10:43:36;;;;;;;11.38;9.32;;;11.50;30.40;;;;;;6216393;23;20281;-87
2022/01/19 10:46:25;;;;;;;11.05;9.55;;;11.70;29.80;;;;;;6216716;23;20176;-86
2022/01/19 10:49:02;;;;;;;10.18;9.15;;;10.50;32.50;;;;;;6216823;23;20258;-85
2022/01/19 10:51:34;;;;;;;10.95;9.68;;;10.70;32.40;;;;;;6218921;23;20217;-86
2022/01/19 10:54:11;;;;;;;11.48;10.27;;;10.50;31.90;;;;;;6217994;23;20534;-85
2022/01/19 10:56:40;;;;;;;10.60;9.55;;;10.40;31.90;;;;;;6218495;23;20165;-86
2022/01/19 10:59:09;;;;;;;11.50;9.80;;;10.30;34.50;;;;;;6214850;23;20209;-88
2022/01/19 11:01:42;;;;;;;10.57;9.48;;;10.40;33.50;;;;;;6219964;23;20284;-87
2022/01/19 11:04:21;;;;;;;9.70;8.70;;;10.00;33.90;;;;;;6218663;23;20297;-86
2022/01/19 11:06:49;;;;;;;11.65;9.20;;;11.00;32.80;;;;;;6218218;23;20173;-86
2022/01/19 11:09:18;;;;;;;9.65;8.52;;;11.10;31.10;;;;;;6217977;23;20288;-87
2022/01/19 11:11:45;;;;;;;11.63;9.52;;;11.00;32.70;;;;;;6218840;23;20178;-86
2022/01/19 11:14:15;;;;;;;11.93;10.10;;;11.70;30.50;;;;;;6218014;23;20201;-85
2022/01/19 11:16:45;;;;;;;12.05;9.70;;;11.80;29.60;;;;;;6219154;23;20183;-86
2022/01/19 11:19:13;;;;;;;10.85;9.73;;;11.60;28.80;;;;;;6218676;23;20206;-85
2022/01/19 11:21:51;;;;;;;10.68;9.13;;;11.30;31.10;;;;;;6219809;23;20206;-88
2022/01/19 11:24:29;;;;;;;9.95;8.95;;;10.60;31.80;;;;;;6217463;23;20220;-87
2022/01/19 11:26:57;;;;;;;11.68;9.10;;;9.90;35.30;;;;;;6221860;23;20163;-86
2022/01/19 11:29:26;;;;;;;11.93;8.90;;;9.20;36.50;;;;;;6219212;23;20201;-86
2022/01/19 11:31:55;;;;;;;12.15;8.68;;;8.60;39.30;;;;;;6220289;23;20225;-86
2022/01/19 11:34:46;;;;;;;12.07;8.75;;;7.90;44.10;;;;;;6220499;23;20206;-87
2022/01/19 11:37:14;;;;;;;12.60;8.98;;;7.60;50.70;;;;;;6219177;23;20162;-88
2022/01/19 11:40:00;;;;;;;12.80;8.38;;;7.60;50.80;;;;;;6219433;23;20598;-86
2022/01/19 11:42:26;;;;;;;12.35;9.18;;;7.60;50.00;;;;;;6222539;23;20162;-87
2022/01/19 11:44:53;;;;;;;13.10;9.55;;;7.30;51.20;;;;;;6218525;23;20221;-84
2022/01/19 11:47:29;;;;;;;13.85;9.07;;;7.10;52.20;;;;;;6222167;23;20257;-85
2022/01/19 11:49:58;;;;;;;14.57;8.38;;;7.10;54.30;;;;;;6219443;23;20285;-84
2022/01/19 11:52:32;;;;;;;12.70;8.60;;;7.00;52.30;;;;;;6221867;23;20576;-84
2022/01/19 11:55:15;;;;;;;11.63;8.40;;;7.10;54.00;;;;;;6220869;22;20201;-85
2022/01/19 11:57:42;;;;;;;12.25;8.02;;;7.20;49.80;;;;;;6221195;23;20218;-85
2022/01/19 12:00:19;;;;;;;11.38;8.13;;;7.40;51.10;;;;;;6221122;23;20229;-86
2022/01/19 12:02:57;;;;;;;12.10;8.23;;;7.30;49.40;;;;;;6221403;23;20359;-84
2022/01/19 12:05:31;;;;;;;9.90;7.97;;;7.30;49.30;;;;;;6220811;23;20272;-85
2022/01/19 12:08:00;;;;;;;9.73;7.80;;;7.30;49.00;;;;;;6219723;23;20174;-84
2022/01/19 12:10:46;;;;;;;8.32;7.05;;;7.40;48.50;;;;;;6221922;23;20564;-86
2022/01/19 12:13:27;;;;;;;9.68;7.47;;;7.50;46.30;;;;;;6220728;23;20194;-84
2022/01/19 12:16:00;;;;;;;12.15;7.68;;;7.50;46.30;;;;;;6220828;23;20162;-85
2022/01/19 12:18:47;;;;;;;8.73;6.93;;;7.50;46.30;;;;;;6220477;23;20208;-84
2022/01/19 12:21:17;;;;;;;9.57;6.95;;;7.50;46.30;;;;;;6220717;23;20169;-84
2022/01/19 12:23:44;;;;;;;10.90;6.82;;;7.30;46.30;;;;;;6219985;23;20281;-86
2022/01/19 12:26:12;;;;;;;8.73;7.03;;;7.20;46.10;;;;;;6220340;23;20898;-84
2022/01/19 12:28:47;;;;;;;15.02;7.30;;;7.10;46.00;;;;;;6219283;23;20302;-84
2022/01/19 12:31:35;;;;;;;11.52;7.10;;;6.90;45.80;;;;;;6219044;23;20157;-85
2022/01/19 12:34:21;;;;;;;10.30;7.75;;;6.90;45.80;;;;;;6215898;23;20621;-84
2022/01/19 12:36:54;;;;;;;15.27;7.25;;;7.00;45.90;;;;;;6218758;23;20162;-86
2022/01/19 12:39:41;;;;;;;9.13;6.63;;;6.80;45.70;;;;;;6217423;23;20219;-87
2022/01/19 12:42:13;;;;;;;10.80;7.15;;;6.80;45.70;;;;;;6218034;23;20245;-85
2022/01/19 12:44:44;;;;;;;10.90;7.18;;;6.80;45.70;;;;;;6217343;23;20206;-86
2022/01/19 12:47:46;;;;;;;10.60;7.27;;;6.90;46.20;;;;;;6218141;23;20162;-88
2022/01/19 12:50:37;;;;;;;10.07;7.67;;;6.90;45.90;;;;;;6217205;23;20188;-85
2022/01/19 12:53:18;;;;;;;12.10;7.78;;;6.90;46.90;;;;;;6216245;22;20177;-85
2022/01/19 12:55:48;;;;;;;10.75;7.60;;;6.90;47.30;;;;;;6217369;23;20176;-85
2022/01/19 12:58:19;;;;;;;10.35;7.32;;;7.00;46.00;;;;;;6215896;23;20229;-87
2022/01/19 13:00:50;;;;;;;10.85;7.65;;;6.90;45.90;;;;;;6217496;23;20164;-84
2022/01/19 13:03:22;;;;;;;9.23;7.45;;;6.90;47.30;;;;;;6216593;23;20661;-85
2022/01/19 13:05:53;;;;;;;12.90;7.57;;;7.00;48.10;;;;;;6217042;23;20165;-87
2022/01/19 13:08:29;;;;;;;10.57;7.53;;;6.90;47.90;;;;;;6217013;23;20289;-85
2022/01/19 13:11:04;;;;;;;15.40;7.93;;;6.80;47.50;;;;;;6216933;23;20158;-88
2022/01/19 13:13:31;;;;;;;10.63;7.70;;;6.90;49.30;;;;;;6216957;23;20197;-84
2022/01/19 13:16:00;;;;;;;12.90;7.60;;;7.00;49.10;;;;;;6216415;23;20232;-88
2022/01/19 13:18:33;;;;;;;10.75;7.85;;;7.00;49.30;;;;;;6216064;23;20198;-87
2022/01/19 13:21:04;;;;;;;9.60;6.97;;;7.10;47.60;;;;;;6215155;23;20215;-87
2022/01/19 13:23:33;;;;;;;9.70;6.82;;;7.10;46.00;;;;;;6216048;23;20272;-86
2022/01/19 13:26:03;;;;;;;10.25;7.32;;;7.00;47.10;;;;;;6215697;23;20173;-85
2022/01/19 13:28:32;;;;;;;13.10;7.18;;;6.90;47.60;;;;;;6215538;23;20206;-86
2022/01/19 13:31:10;;;;;;;9.88;7.55;;;7.00;48.40;;;;;;6217389;23;20171;-85
2022/01/19 13:33:38;;;;;;;14.98;7.68;;;7.00;48.30;;;;;;6217393;23;20272;-84
2022/01/19 13:36:07;;;;;;;13.15;7.75;;;6.90;48.40;;;;;;6217921;23;20169;-86
2022/01/19 13:38:34;;;;;;;12.00;7.45;;;6.90;48.40;;;;;;6217348;23;20669;-86
2022/01/19 13:41:06;;;;;;;12.02;7.47;;;6.90;48.10;;;;;;6214867;23;20180;-88
2022/01/19 13:43:37;;;;;;;10.80;7.45;;;7.00;48.50;;;;;;6214331;23;20517;-87
2022/01/19 13:46:14;;;;;;;18.02;7.65;;;7.10;48.80;;;;;;6215314;23;20540;-86
2022/01/19 13:48:44;;;;;;;12.32;7.40;;;7.10;49.20;;;;;;6214293;23;20712;-87
2022/01/19 13:51:14;;;;;;;8.82;6.00;;;7.10;48.30;;;;;;6215570;23;20468;-87
2022/01/19 13:53:49;;;;;;;9.05;6.93;;;7.20;46.10;;;;;;6216350;23;20202;-89
2022/01/19 13:56:25;;;;;;;10.82;7.07;;;7.20;47.40;;;;;;6219188;23;20183;-84
2022/01/19 13:58:57;;;;;;;10.40;6.85;;;7.20;47.30;;;;;;6219241;23;20579;-88
2022/01/19 14:01:34;;;;;;;10.10;6.10;;;7.30;46.90;;;;;;6218588;23;20252;-87
2022/01/19 14:04:05;;;;;;;8.25;5.20;;;7.40;46.20;;;;;;6217798;23;20209;-87
2022/01/19 14:06:34;;;;;;;8.27;5.60;;;7.60;44.20;;;;;;6218251;23;20170;-90
2022/01/19 14:09:14;;;;;;;8.88;5.97;;;7.80;42.30;;;;;;6219510;23;20278;-89
2022/01/19 14:11:45;;;;;;;6.85;4.93;;;7.70;43.30;;;;;;6219988;23;20188;-88